sensor_id;sensor_type;location;lat;lon;timestamp;temperature;humidity
32612;DHT22;19030;49.478;8.986;2024-02-28T00:00:42;4.50;99.90
32612;DHT22;19030;49.478;8.986;2024-02-28T00:02:43;4.40;99.90
32612;DHT22;19030;49.478;8.986;2024-02-28T00:04:43;4.40;99.90
32612;DHT22;19030;49.478;8.986;2024-02-28T00:06:44;4.40;99.90
32612;DHT22;19030;49.478;8.986;2024-02-28T00:08:46;4.30;99.90
32612;DHT22;19030;49.478;8.986;2024-02-28T00:10:47;4.30;99.90
32612;DHT22;19030;49.478;8.986;2024-02-28T00:12:47;4.20;99.90
32612;DHT22;19030;49.478;8.986;2024-02-28T00:14:48;4.30;99.90
32612;DHT22;19030;49.478;8.986;2024-02-28T00:16:48;4.20;99.90
32612;DHT22;19030;49.478;8.986;2024-02-28T00:18:49;4.10;99.90
32612;DHT22;19030;49.478;8.986;2024-02-28T00:20:49;4.10;99.90
32612;DHT22;19030;49.478;8.986;2024-02-28T00:22:50;4.10;99.90
32612;DHT22;19030;49.478;8.986;2024-02-28T00:24:51;4.10;99.90
32612;DHT22;19030;49.478;8.986;2024-02-28T00:26:51;4.00;99.90
32612;DHT22;19030;49.478;8.986;2024-02-28T00:28:52;4.00;99.90
32612;DHT22;19030;49.478;8.986;2024-02-28T00:30:52;4.00;99.90
32612;DHT22;19030;49.478;8.986;2024-02-28T00:32:53;3.90;99.90
32612;DHT22;19030;49.478;8.986;2024-02-28T00:34:53;3.90;99.90
32612;DHT22;19030;49.478;8.986;2024-02-28T00:36:54;3.90;99.90
32612;DHT22;19030;49.478;8.986;2024-02-28T00:38:54;3.80;99.90
32612;DHT22;19030;49.478;8.986;2024-02-28T00:40:55;3.80;99.90
32612;DHT22;19030;49.478;8.986;2024-02-28T00:42:56;3.80;99.90
32612;DHT22;19030;49.478;8.986;2024-02-28T00:44:57;3.80;99.90
32612;DHT22;19030;49.478;8.986;2024-02-28T00:46:57;3.70;99.90
32612;DHT22;19030;49.478;8.986;2024-02-28T00:48:58;3.70;99.90
32612;DHT22;19030;49.478;8.986;2024-02-28T00:50:58;3.70;99.90
32612;DHT22;19030;49.478;8.986;2024-02-28T00:52:59;3.70;99.90
32612;DHT22;19030;49.478;8.986;2024-02-28T00:54:59;3.70;99.90
32612;DHT22;19030;49.478;8.986;2024-02-28T00:57:00;3.60;99.90
32612;DHT22;19030;49.478;8.986;2024-02-28T00:59:00;3.60;99.90
32612;DHT22;19030;49.478;8.986;2024-02-28T01:01:01;3.60;99.90
32612;DHT22;19030;49.478;8.986;2024-02-28T01:03:02;3.60;99.90
32612;DHT22;19030;49.478;8.986;2024-02-28T01:05:05;3.60;99.90
32612;DHT22;19030;49.478;8.986;2024-02-28T01:07:06;3.50;99.90
32612;DHT22;19030;49.478;8.986;2024-02-28T01:09:06;3.50;99.90
32612;DHT22;19030;49.478;8.986;2024-02-28T01:11:07;3.50;99.90
32612;DHT22;19030;49.478;8.986;2024-02-28T01:13:08;3.50;99.90
32612;DHT22;19030;49.478;8.986;2024-02-28T01:15:08;3.40;99.90
32612;DHT22;19030;49.478;8.986;2024-02-28T01:17:09;3.40;99.90
32612;DHT22;19030;49.478;8.986;2024-02-28T01:19:10;3.40;99.90
32612;DHT22;19030;49.478;8.986;2024-02-28T01:21:10;3.40;99.90
32612;DHT22;19030;49.478;8.986;2024-02-28T01:23:11;3.40;99.90
32612;DHT22;19030;49.478;8.986;2024-02-28T01:25:11;3.30;99.90
32612;DHT22;19030;49.478;8.986;2024-02-28T01:27:12;3.40;99.90
32612;DHT22;19030;49.478;8.986;2024-02-28T01:29:12;3.30;99.90
32612;DHT22;19030;49.478;8.986;2024-02-28T01:31:13;3.30;99.90
32612;DHT22;19030;49.478;8.986;2024-02-28T01:33:13;3.30;99.90
32612;DHT22;19030;49.478;8.986;2024-02-28T01:35:14;3.20;99.90
32612;DHT22;19030;49.478;8.986;2024-02-28T01:37:15;3.20;99.90
32612;DHT22;19030;49.478;8.986;2024-02-28T01:39:15;3.20;99.90
32612;DHT22;19030;49.478;8.986;2024-02-28T01:41:16;3.10;99.90
32612;DHT22;19030;49.478;8.986;2024-02-28T01:43:17;3.10;99.90
32612;DHT22;19030;49.478;8.986;2024-02-28T01:45:17;3.10;99.90
32612;DHT22;19030;49.478;8.986;2024-02-28T01:47:18;3.10;99.90
32612;DHT22;19030;49.478;8.986;2024-02-28T01:49:19;3.10;99.90
32612;DHT22;19030;49.478;8.986;2024-02-28T01:51:23;3.10;99.90
32612;DHT22;19030;49.478;8.986;2024-02-28T01:53:24;3.10;99.90
32612;DHT22;19030;49.478;8.986;2024-02-28T01:55:25;3.00;99.90
32612;DHT22;19030;49.478;8.986;2024-02-28T01:57:26;3.00;99.90
32612;DHT22;19030;49.478;8.986;2024-02-28T01:59:28;3.00;99.90
32612;DHT22;19030;49.478;8.986;2024-02-28T02:01:30;2.90;99.90
32612;DHT22;19030;49.478;8.986;2024-02-28T02:03:30;2.90;99.90
32612;DHT22;19030;49.478;8.986;2024-02-28T02:05:31;2.90;99.90
32612;DHT22;19030;49.478;8.986;2024-02-28T02:07:31;2.90;99.90
32612;DHT22;19030;49.478;8.986;2024-02-28T02:09:33;2.90;99.90
32612;DHT22;19030;49.478;8.986;2024-02-28T02:11:35;2.80;99.90
32612;DHT22;19030;49.478;8.986;2024-02-28T02:13:35;2.80;99.90
32612;DHT22;19030;49.478;8.986;2024-02-28T02:15:47;2.80;99.90
32612;DHT22;19030;49.478;8.986;2024-02-28T02:17:47;2.80;99.90
32612;DHT22;19030;49.478;8.986;2024-02-28T02:19:48;2.80;99.90
32612;DHT22;19030;49.478;8.986;2024-02-28T02:21:53;2.80;99.90
32612;DHT22;19030;49.478;8.986;2024-02-28T02:23:56;2.80;99.90
32612;DHT22;19030;49.478;8.986;2024-02-28T02:25:57;2.80;99.90
32612;DHT22;19030;49.478;8.986;2024-02-28T02:27:57;2.80;99.90
32612;DHT22;19030;49.478;8.986;2024-02-28T02:29:58;2.90;99.90
32612;DHT22;19030;49.478;8.986;2024-02-28T02:31:58;2.90;99.90
32612;DHT22;19030;49.478;8.986;2024-02-28T02:33:59;3.00;99.90
32612;DHT22;19030;49.478;8.986;2024-02-28T02:36:00;3.00;99.90
32612;DHT22;19030;49.478;8.986;2024-02-28T02:38:00;3.10;99.90
32612;DHT22;19030;49.478;8.986;2024-02-28T02:40:01;3.20;99.90
32612;DHT22;19030;49.478;8.986;2024-02-28T02:42:02;3.20;99.90
32612;DHT22;19030;49.478;8.986;2024-02-28T02:44:02;3.30;99.90
32612;DHT22;19030;49.478;8.986;2024-02-28T02:46:03;3.30;99.90
32612;DHT22;19030;49.478;8.986;2024-02-28T02:48:04;3.30;99.90
32612;DHT22;19030;49.478;8.986;2024-02-28T02:50:05;3.40;99.90
32612;DHT22;19030;49.478;8.986;2024-02-28T02:52:06;3.40;99.90
32612;DHT22;19030;49.478;8.986;2024-02-28T02:54:06;3.50;99.90
32612;DHT22;19030;49.478;8.986;2024-02-28T02:56:07;3.50;99.90
32612;DHT22;19030;49.478;8.986;2024-02-28T02:58:07;3.50;99.90
32612;DHT22;19030;49.478;8.986;2024-02-28T03:00:09;3.60;99.90
32612;DHT22;19030;49.478;8.986;2024-02-28T03:02:10;3.60;99.90
32612;DHT22;19030;49.478;8.986;2024-02-28T03:04:10;3.60;99.90
32612;DHT22;19030;49.478;8.986;2024-02-28T03:06:11;3.70;99.90
32612;DHT22;19030;49.478;8.986;2024-02-28T03:08:12;3.70;99.90
32612;DHT22;19030;49.478;8.986;2024-02-28T03:10:12;3.70;99.90
32612;DHT22;19030;49.478;8.986;2024-02-28T03:12:13;3.70;99.90
32612;DHT22;19030;49.478;8.986;2024-02-28T03:14:13;3.70;99.90
32612;DHT22;19030;49.478;8.986;2024-02-28T03:16:14;3.60;99.90
32612;DHT22;19030;49.478;8.986;2024-02-28T03:18:14;3.60;99.90
32612;DHT22;19030;49.478;8.986;2024-02-28T03:20:15;3.60;99.90
32612;DHT22;19030;49.478;8.986;2024-02-28T03:22:16;3.60;99.90
32612;DHT22;19030;49.478;8.986;2024-02-28T03:24:16;3.50;99.90
32612;DHT22;19030;49.478;8.986;2024-02-28T03:26:17;3.50;99.90
32612;DHT22;19030;49.478;8.986;2024-02-28T03:28:18;3.50;99.90
32612;DHT22;19030;49.478;8.986;2024-02-28T03:30:18;3.50;99.90
32612;DHT22;19030;49.478;8.986;2024-02-28T03:32:19;3.50;99.90
32612;DHT22;19030;49.478;8.986;2024-02-28T03:34:19;3.50;99.90
32612;DHT22;19030;49.478;8.986;2024-02-28T03:36:20;3.50;99.90
32612;DHT22;19030;49.478;8.986;2024-02-28T03:38:21;3.50;99.90
32612;DHT22;19030;49.478;8.986;2024-02-28T03:40:21;3.60;99.90
32612;DHT22;19030;49.478;8.986;2024-02-28T03:42:22;3.60;99.90
32612;DHT22;19030;49.478;8.986;2024-02-28T03:44:24;3.60;99.90
32612;DHT22;19030;49.478;8.986;2024-02-28T03:46:26;3.60;99.90
32612;DHT22;19030;49.478;8.986;2024-02-28T03:48:26;3.60;99.90
32612;DHT22;19030;49.478;8.986;2024-02-28T03:50:27;3.60;99.90
32612;DHT22;19030;49.478;8.986;2024-02-28T03:52:27;3.60;99.90
32612;DHT22;19030;49.478;8.986;2024-02-28T03:54:29;3.60;99.90
32612;DHT22;19030;49.478;8.986;2024-02-28T03:56:30;3.60;99.90
32612;DHT22;19030;49.478;8.986;2024-02-28T03:58:30;3.60;99.90
32612;DHT22;19030;49.478;8.986;2024-02-28T04:00:31;3.60;99.90
32612;DHT22;19030;49.478;8.986;2024-02-28T04:02:31;3.70;99.90
32612;DHT22;19030;49.478;8.986;2024-02-28T04:04:32;3.70;99.90
32612;DHT22;19030;49.478;8.986;2024-02-28T04:06:33;3.70;99.90
32612;DHT22;19030;49.478;8.986;2024-02-28T04:08:33;3.80;99.90
32612;DHT22;19030;49.478;8.986;2024-02-28T04:10:34;3.80;99.90
32612;DHT22;19030;49.478;8.986;2024-02-28T04:12:34;3.80;99.90
32612;DHT22;19030;49.478;8.986;2024-02-28T04:14:37;3.80;99.90
32612;DHT22;19030;49.478;8.986;2024-02-28T04:16:42;3.90;99.90
32612;DHT22;19030;49.478;8.986;2024-02-28T04:18:44;3.80;99.90
32612;DHT22;19030;49.478;8.986;2024-02-28T04:20:44;3.90;99.90
32612;DHT22;19030;49.478;8.986;2024-02-28T04:22:45;3.90;99.90
32612;DHT22;19030;49.478;8.986;2024-02-28T04:24:46;3.90;99.90
32612;DHT22;19030;49.478;8.986;2024-02-28T04:26:46;3.90;99.90
32612;DHT22;19030;49.478;8.986;2024-02-28T04:28:47;3.90;99.90
32612;DHT22;19030;49.478;8.986;2024-02-28T04:30:47;3.90;99.90
32612;DHT22;19030;49.478;8.986;2024-02-28T04:32:48;4.00;99.90
32612;DHT22;19030;49.478;8.986;2024-02-28T04:34:49;4.00;99.90
32612;DHT22;19030;49.478;8.986;2024-02-28T04:36:49;4.00;99.90
32612;DHT22;19030;49.478;8.986;2024-02-28T04:38:50;4.00;99.90
32612;DHT22;19030;49.478;8.986;2024-02-28T04:40:50;4.00;99.90
32612;DHT22;19030;49.478;8.986;2024-02-28T04:42:51;4.00;99.90
32612;DHT22;19030;49.478;8.986;2024-02-28T04:44:51;4.00;99.90
32612;DHT22;19030;49.478;8.986;2024-02-28T04:46:52;4.00;99.90
32612;DHT22;19030;49.478;8.986;2024-02-28T04:48:52;4.00;99.90
32612;DHT22;19030;49.478;8.986;2024-02-28T04:50:53;4.00;99.90
32612;DHT22;19030;49.478;8.986;2024-02-28T04:52:53;4.10;99.90
32612;DHT22;19030;49.478;8.986;2024-02-28T04:54:56;4.00;99.90
32612;DHT22;19030;49.478;8.986;2024-02-28T04:56:56;4.00;99.90
32612;DHT22;19030;49.478;8.986;2024-02-28T04:58:57;4.00;99.90
32612;DHT22;19030;49.478;8.986;2024-02-28T05:00:57;4.00;99.90
32612;DHT22;19030;49.478;8.986;2024-02-28T05:02:58;4.00;99.90
32612;DHT22;19030;49.478;8.986;2024-02-28T05:04:58;4.00;99.90
32612;DHT22;19030;49.478;8.986;2024-02-28T05:06:59;4.00;99.90
32612;DHT22;19030;49.478;8.986;2024-02-28T05:09:00;4.00;99.90
32612;DHT22;19030;49.478;8.986;2024-02-28T05:11:00;3.90;99.90
32612;DHT22;19030;49.478;8.986;2024-02-28T05:13:01;3.90;99.90
32612;DHT22;19030;49.478;8.986;2024-02-28T05:15:04;3.90;99.90
32612;DHT22;19030;49.478;8.986;2024-02-28T05:17:06;4.00;99.90
32612;DHT22;19030;49.478;8.986;2024-02-28T05:19:07;4.00;99.90
32612;DHT22;19030;49.478;8.986;2024-02-28T05:21:07;4.00;99.90
32612;DHT22;19030;49.478;8.986;2024-02-28T05:23:08;4.00;99.90
32612;DHT22;19030;49.478;8.986;2024-02-28T05:25:09;4.00;99.90
32612;DHT22;19030;49.478;8.986;2024-02-28T05:27:09;4.00;99.90
32612;DHT22;19030;49.478;8.986;2024-02-28T05:29:10;4.00;99.90
32612;DHT22;19030;49.478;8.986;2024-02-28T05:31:25;4.00;99.90
32612;DHT22;19030;49.478;8.986;2024-02-28T05:33:26;4.10;99.90
32612;DHT22;19030;49.478;8.986;2024-02-28T05:35:26;4.10;99.90
32612;DHT22;19030;49.478;8.986;2024-02-28T05:37:27;4.10;99.90
32612;DHT22;19030;49.478;8.986;2024-02-28T05:39:28;4.10;99.90
32612;DHT22;19030;49.478;8.986;2024-02-28T05:41:29;4.10;99.90
32612;DHT22;19030;49.478;8.986;2024-02-28T05:43:30;4.10;99.90
32612;DHT22;19030;49.478;8.986;2024-02-28T05:45:30;4.00;99.90
32612;DHT22;19030;49.478;8.986;2024-02-28T05:47:31;4.00;99.90
32612;DHT22;19030;49.478;8.986;2024-02-28T05:49:31;4.10;99.90
32612;DHT22;19030;49.478;8.986;2024-02-28T05:51:32;4.10;99.90
32612;DHT22;19030;49.478;8.986;2024-02-28T05:53:33;4.10;99.90
32612;DHT22;19030;49.478;8.986;2024-02-28T05:55:36;4.10;99.90
32612;DHT22;19030;49.478;8.986;2024-02-28T05:57:37;4.10;99.90
32612;DHT22;19030;49.478;8.986;2024-02-28T05:59:38;4.20;99.90
32612;DHT22;19030;49.478;8.986;2024-02-28T06:01:39;4.10;99.90
32612;DHT22;19030;49.478;8.986;2024-02-28T06:03:40;4.10;99.90
32612;DHT22;19030;49.478;8.986;2024-02-28T06:05:41;4.10;99.90
32612;DHT22;19030;49.478;8.986;2024-02-28T06:07:41;4.10;99.90
32612;DHT22;19030;49.478;8.986;2024-02-28T06:09:42;4.10;99.90
32612;DHT22;19030;49.478;8.986;2024-02-28T06:11:42;4.10;99.90
32612;DHT22;19030;49.478;8.986;2024-02-28T06:13:43;4.10;99.90
32612;DHT22;19030;49.478;8.986;2024-02-28T06:15:43;4.10;99.90
32612;DHT22;19030;49.478;8.986;2024-02-28T06:17:44;4.10;99.90
32612;DHT22;19030;49.478;8.986;2024-02-28T06:19:45;4.10;99.90
32612;DHT22;19030;49.478;8.986;2024-02-28T06:21:45;4.00;99.90
32612;DHT22;19030;49.478;8.986;2024-02-28T06:23:46;4.00;99.90
32612;DHT22;19030;49.478;8.986;2024-02-28T06:25:46;4.00;99.90
32612;DHT22;19030;49.478;8.986;2024-02-28T06:27:47;4.10;99.90
32612;DHT22;19030;49.478;8.986;2024-02-28T06:29:47;4.10;99.90
32612;DHT22;19030;49.478;8.986;2024-02-28T06:31:52;4.10;99.90
32612;DHT22;19030;49.478;8.986;2024-02-28T06:33:52;4.10;99.90
32612;DHT22;19030;49.478;8.986;2024-02-28T06:35:53;4.10;99.90
32612;DHT22;19030;49.478;8.986;2024-02-28T06:37:53;4.10;99.90
32612;DHT22;19030;49.478;8.986;2024-02-28T06:39:54;4.20;99.90
32612;DHT22;19030;49.478;8.986;2024-02-28T06:41:55;4.20;99.90
32612;DHT22;19030;49.478;8.986;2024-02-28T06:43:55;4.20;99.90
32612;DHT22;19030;49.478;8.986;2024-02-28T06:45:56;4.30;99.90
32612;DHT22;19030;49.478;8.986;2024-02-28T06:47:57;4.40;99.90
32612;DHT22;19030;49.478;8.986;2024-02-28T06:49:58;4.40;99.90
32612;DHT22;19030;49.478;8.986;2024-02-28T06:51:59;4.40;99.90
32612;DHT22;19030;49.478;8.986;2024-02-28T06:54:01;4.50;99.90
32612;DHT22;19030;49.478;8.986;2024-02-28T06:56:02;4.60;99.90
32612;DHT22;19030;49.478;8.986;2024-02-28T06:58:03;4.70;99.90
32612;DHT22;19030;49.478;8.986;2024-02-28T07:00:06;4.70;99.90
32612;DHT22;19030;49.478;8.986;2024-02-28T07:02:08;4.70;99.90
32612;DHT22;19030;49.478;8.986;2024-02-28T07:04:09;4.70;99.90
32612;DHT22;19030;49.478;8.986;2024-02-28T07:06:11;4.70;99.90
32612;DHT22;19030;49.478;8.986;2024-02-28T07:08:11;4.70;99.90
32612;DHT22;19030;49.478;8.986;2024-02-28T07:10:12;4.70;99.90
32612;DHT22;19030;49.478;8.986;2024-02-28T07:12:13;4.70;99.90
32612;DHT22;19030;49.478;8.986;2024-02-28T07:14:14;4.70;99.90
32612;DHT22;19030;49.478;8.986;2024-02-28T07:16:15;4.80;99.90
32612;DHT22;19030;49.478;8.986;2024-02-28T07:18:16;4.80;99.90
32612;DHT22;19030;49.478;8.986;2024-02-28T07:20:16;4.80;99.90
32612;DHT22;19030;49.478;8.986;2024-02-28T07:22:17;5.00;99.90
32612;DHT22;19030;49.478;8.986;2024-02-28T07:24:18;5.20;99.90
32612;DHT22;19030;49.478;8.986;2024-02-28T07:26:18;5.50;99.90
32612;DHT22;19030;49.478;8.986;2024-02-28T07:28:19;5.80;99.90
32612;DHT22;19030;49.478;8.986;2024-02-28T07:30:19;6.20;99.90
32612;DHT22;19030;49.478;8.986;2024-02-28T07:32:20;6.50;99.90
32612;DHT22;19030;49.478;8.986;2024-02-28T07:34:20;6.70;99.90
32612;DHT22;19030;49.478;8.986;2024-02-28T07:36:21;6.80;99.90
32612;DHT22;19030;49.478;8.986;2024-02-28T07:38:21;6.80;99.90
32612;DHT22;19030;49.478;8.986;2024-02-28T07:40:27;6.90;99.90
32612;DHT22;19030;49.478;8.986;2024-02-28T07:42:28;7.20;99.90
32612;DHT22;19030;49.478;8.986;2024-02-28T07:44:28;7.60;99.90
32612;DHT22;19030;49.478;8.986;2024-02-28T07:46:30;7.80;99.90
32612;DHT22;19030;49.478;8.986;2024-02-28T07:48:31;7.90;99.90
32612;DHT22;19030;49.478;8.986;2024-02-28T07:50:32;8.00;99.90
32612;DHT22;19030;49.478;8.986;2024-02-28T07:52:32;7.90;99.90
32612;DHT22;19030;49.478;8.986;2024-02-28T07:54:35;7.90;99.90
32612;DHT22;19030;49.478;8.986;2024-02-28T07:56:37;7.90;99.90
32612;DHT22;19030;49.478;8.986;2024-02-28T07:58:37;7.90;99.90
32612;DHT22;19030;49.478;8.986;2024-02-28T08:00:39;7.90;99.90
32612;DHT22;19030;49.478;8.986;2024-02-28T08:02:39;8.00;99.90
32612;DHT22;19030;49.478;8.986;2024-02-28T08:04:40;8.10;99.90
32612;DHT22;19030;49.478;8.986;2024-02-28T08:06:41;8.50;99.90
32612;DHT22;19030;49.478;8.986;2024-02-28T08:08:44;8.90;99.90
32612;DHT22;19030;49.478;8.986;2024-02-28T08:10:45;9.30;99.90
32612;DHT22;19030;49.478;8.986;2024-02-28T08:12:47;9.60;99.90
32612;DHT22;19030;49.478;8.986;2024-02-28T08:14:47;9.80;99.90
32612;DHT22;19030;49.478;8.986;2024-02-28T08:16:48;9.90;99.90
32612;DHT22;19030;49.478;8.986;2024-02-28T08:18:51;9.90;99.90
32612;DHT22;19030;49.478;8.986;2024-02-28T08:20:51;9.90;99.90
32612;DHT22;19030;49.478;8.986;2024-02-28T08:22:53;10.00;99.90
32612;DHT22;19030;49.478;8.986;2024-02-28T08:24:56;10.00;99.90
32612;DHT22;19030;49.478;8.986;2024-02-28T08:26:57;10.00;99.90
32612;DHT22;19030;49.478;8.986;2024-02-28T08:28:57;10.10;99.90
32612;DHT22;19030;49.478;8.986;2024-02-28T08:31:01;10.10;99.90
32612;DHT22;19030;49.478;8.986;2024-02-28T08:33:01;10.00;99.90
32612;DHT22;19030;49.478;8.986;2024-02-28T08:35:02;10.10;99.90
32612;DHT22;19030;49.478;8.986;2024-02-28T08:37:03;10.30;99.90
32612;DHT22;19030;49.478;8.986;2024-02-28T08:39:04;10.60;99.90
32612;DHT22;19030;49.478;8.986;2024-02-28T08:41:09;10.90;99.90
32612;DHT22;19030;49.478;8.986;2024-02-28T08:43:10;11.30;99.90
32612;DHT22;19030;49.478;8.986;2024-02-28T08:45:11;11.60;99.90
32612;DHT22;19030;49.478;8.986;2024-02-28T08:47:12;11.70;99.90
32612;DHT22;19030;49.478;8.986;2024-02-28T08:49:13;12.10;99.90
32612;DHT22;19030;49.478;8.986;2024-02-28T08:51:14;12.50;99.90
32612;DHT22;19030;49.478;8.986;2024-02-28T08:53:14;12.90;99.90
32612;DHT22;19030;49.478;8.986;2024-02-28T08:55:15;13.30;99.90
32612;DHT22;19030;49.478;8.986;2024-02-28T08:57:19;13.80;99.90
32612;DHT22;19030;49.478;8.986;2024-02-28T08:59:20;14.30;96.90
32612;DHT22;19030;49.478;8.986;2024-02-28T09:01:22;14.70;93.60
32612;DHT22;19030;49.478;8.986;2024-02-28T09:03:22;15.20;91.80
32612;DHT22;19030;49.478;8.986;2024-02-28T09:05:23;16.10;90.20
32612;DHT22;19030;49.478;8.986;2024-02-28T09:07:24;16.70;83.60
32612;DHT22;19030;49.478;8.986;2024-02-28T09:09:24;17.20;78.50
32612;DHT22;19030;49.478;8.986;2024-02-28T09:11:25;17.50;75.20
32612;DHT22;19030;49.478;8.986;2024-02-28T09:13:25;17.90;72.90
32612;DHT22;19030;49.478;8.986;2024-02-28T09:15:27;17.60;70.20
32612;DHT22;19030;49.478;8.986;2024-02-28T09:17:27;16.70;72.60
32612;DHT22;19030;49.478;8.986;2024-02-28T09:19:28;15.60;76.10
32612;DHT22;19030;49.478;8.986;2024-02-28T09:21:28;15.10;79.60
32612;DHT22;19030;49.478;8.986;2024-02-28T09:23:29;15.90;81.50
32612;DHT22;19030;49.478;8.986;2024-02-28T09:25:31;17.00;75.20
32612;DHT22;19030;49.478;8.986;2024-02-28T09:27:32;18.90;66.10
32612;DHT22;19030;49.478;8.986;2024-02-28T09:29:33;20.60;58.20
32612;DHT22;19030;49.478;8.986;2024-02-28T09:31:34;21.70;53.60
32612;DHT22;19030;49.478;8.986;2024-02-28T09:33:34;22.30;49.70
32612;DHT22;19030;49.478;8.986;2024-02-28T09:35:35;23.10;48.10
32612;DHT22;19030;49.478;8.986;2024-02-28T09:37:38;24.10;46.70
32612;DHT22;19030;49.478;8.986;2024-02-28T09:39:39;24.80;43.70
32612;DHT22;19030;49.478;8.986;2024-02-28T09:41:43;22.50;44.80
32612;DHT22;19030;49.478;8.986;2024-02-28T09:43:44;21.40;47.40
32612;DHT22;19030;49.478;8.986;2024-02-28T09:45:46;20.40;49.70
32612;DHT22;19030;49.478;8.986;2024-02-28T09:47:47;19.70;50.90
32612;DHT22;19030;49.478;8.986;2024-02-28T09:49:50;18.30;53.80
32612;DHT22;19030;49.478;8.986;2024-02-28T09:51:52;16.90;56.60
32612;DHT22;19030;49.478;8.986;2024-02-28T09:53:52;16.70;58.40
32612;DHT22;19030;49.478;8.986;2024-02-28T09:55:53;17.90;57.70
32612;DHT22;19030;49.478;8.986;2024-02-28T09:57:54;20.10;53.80
32612;DHT22;19030;49.478;8.986;2024-02-28T09:59:59;22.30;49.10
32612;DHT22;19030;49.478;8.986;2024-02-28T10:02:01;24.50;45.10
32612;DHT22;19030;49.478;8.986;2024-02-28T10:04:03;25.30;41.80
32612;DHT22;19030;49.478;8.986;2024-02-28T10:06:04;26.40;39.90
32612;DHT22;19030;49.478;8.986;2024-02-28T10:08:05;26.60;38.90
32612;DHT22;19030;49.478;8.986;2024-02-28T10:10:06;26.40;38.00
32612;DHT22;19030;49.478;8.986;2024-02-28T10:12:09;26.90;37.70
32612;DHT22;19030;49.478;8.986;2024-02-28T10:14:09;27.90;36.30
32612;DHT22;19030;49.478;8.986;2024-02-28T10:16:10;28.90;35.70
32612;DHT22;19030;49.478;8.986;2024-02-28T10:18:11;29.30;33.70
32612;DHT22;19030;49.478;8.986;2024-02-28T10:20:12;28.70;34.20
32612;DHT22;19030;49.478;8.986;2024-02-28T10:22:13;29.30;33.40
32612;DHT22;19030;49.478;8.986;2024-02-28T10:24:13;27.50;35.50
32612;DHT22;19030;49.478;8.986;2024-02-28T10:26:14;27.10;35.50
32612;DHT22;19030;49.478;8.986;2024-02-28T10:28:15;27.40;35.10
32612;DHT22;19030;49.478;8.986;2024-02-28T10:30:16;28.10;34.20
32612;DHT22;19030;49.478;8.986;2024-02-28T10:32:17;28.80;33.80
32612;DHT22;19030;49.478;8.986;2024-02-28T10:34:18;28.90;32.90
32612;DHT22;19030;49.478;8.986;2024-02-28T10:36:19;29.20;33.60
32612;DHT22;19030;49.478;8.986;2024-02-28T10:38:20;29.20;32.40
32612;DHT22;19030;49.478;8.986;2024-02-28T10:40:22;29.50;31.90
32612;DHT22;19030;49.478;8.986;2024-02-28T10:42:25;29.60;32.00
32612;DHT22;19030;49.478;8.986;2024-02-28T10:44:27;29.80;31.30
32612;DHT22;19030;49.478;8.986;2024-02-28T10:46:28;30.50;30.60
32612;DHT22;19030;49.478;8.986;2024-02-28T10:48:29;30.70;30.00
32612;DHT22;19030;49.478;8.986;2024-02-28T10:50:30;30.20;30.30
32612;DHT22;19030;49.478;8.986;2024-02-28T10:52:33;28.60;32.60
32612;DHT22;19030;49.478;8.986;2024-02-28T10:54:36;29.00;31.90
32612;DHT22;19030;49.478;8.986;2024-02-28T10:56:41;29.60;31.60
32612;DHT22;19030;49.478;8.986;2024-02-28T10:58:51;30.00;30.70
32612;DHT22;19030;49.478;8.986;2024-02-28T11:00:52;29.80;31.00
32612;DHT22;19030;49.478;8.986;2024-02-28T11:02:53;30.40;30.10
32612;DHT22;19030;49.478;8.986;2024-02-28T11:04:54;29.10;30.80
32612;DHT22;19030;49.478;8.986;2024-02-28T11:06:56;29.40;30.70
32612;DHT22;19030;49.478;8.986;2024-02-28T11:08:59;29.80;30.00
32612;DHT22;19030;49.478;8.986;2024-02-28T11:11:03;30.20;30.10
32612;DHT22;19030;49.478;8.986;2024-02-28T11:13:04;30.20;29.80
32612;DHT22;19030;49.478;8.986;2024-02-28T11:15:05;29.90;30.10
32612;DHT22;19030;49.478;8.986;2024-02-28T11:17:26;29.80;30.60
32612;DHT22;19030;49.478;8.986;2024-02-28T11:19:29;30.20;30.00
32612;DHT22;19030;49.478;8.986;2024-02-28T11:21:34;30.40;29.30
32612;DHT22;19030;49.478;8.986;2024-02-28T11:23:38;30.20;30.50
32612;DHT22;19030;49.478;8.986;2024-02-28T11:25:38;30.10;29.50
32612;DHT22;19030;49.478;8.986;2024-02-28T11:27:46;29.70;29.70
32612;DHT22;19030;49.478;8.986;2024-02-28T11:29:47;30.20;30.10
32612;DHT22;19030;49.478;8.986;2024-02-28T11:31:50;30.80;29.10
32612;DHT22;19030;49.478;8.986;2024-02-28T11:33:50;30.90;29.20
32612;DHT22;19030;49.478;8.986;2024-02-28T11:35:57;30.20;29.10
32612;DHT22;19030;49.478;8.986;2024-02-28T11:37:58;29.80;29.60
32612;DHT22;19030;49.478;8.986;2024-02-28T11:39:58;30.10;29.00
32612;DHT22;19030;49.478;8.986;2024-02-28T11:42:12;29.80;29.40
32612;DHT22;19030;49.478;8.986;2024-02-28T11:44:17;28.50;30.90
32612;DHT22;19030;49.478;8.986;2024-02-28T11:46:18;28.20;31.30
32612;DHT22;19030;49.478;8.986;2024-02-28T11:48:19;28.50;31.00
32612;DHT22;19030;49.478;8.986;2024-02-28T11:50:19;29.10;31.30
32612;DHT22;19030;49.478;8.986;2024-02-28T11:52:20;29.80;30.20
32612;DHT22;19030;49.478;8.986;2024-02-28T11:54:20;29.40;29.90
32612;DHT22;19030;49.478;8.986;2024-02-28T11:56:21;29.10;30.00
32612;DHT22;19030;49.478;8.986;2024-02-28T11:58:22;28.80;30.00
32612;DHT22;19030;49.478;8.986;2024-02-28T12:00:22;28.10;30.40
32612;DHT22;19030;49.478;8.986;2024-02-28T12:02:23;27.20;30.80
32612;DHT22;19030;49.478;8.986;2024-02-28T12:04:28;25.90;33.20
32612;DHT22;19030;49.478;8.986;2024-02-28T12:06:29;24.70;34.70
32612;DHT22;19030;49.478;8.986;2024-02-28T12:08:30;23.20;36.10
32612;DHT22;19030;49.478;8.986;2024-02-28T12:10:31;22.10;38.50
32612;DHT22;19030;49.478;8.986;2024-02-28T12:12:32;21.60;39.80
32612;DHT22;19030;49.478;8.986;2024-02-28T12:14:36;21.90;39.30
32612;DHT22;19030;49.478;8.986;2024-02-28T12:16:37;21.40;40.00
32612;DHT22;19030;49.478;8.986;2024-02-28T12:18:38;22.10;39.60
32612;DHT22;19030;49.478;8.986;2024-02-28T12:20:41;24.10;37.70
32612;DHT22;19030;49.478;8.986;2024-02-28T12:22:41;26.40;35.20
32612;DHT22;19030;49.478;8.986;2024-02-28T12:24:42;26.70;32.80
32612;DHT22;19030;49.478;8.986;2024-02-28T12:26:42;26.80;32.40
32612;DHT22;19030;49.478;8.986;2024-02-28T12:28:43;27.00;32.60
32612;DHT22;19030;49.478;8.986;2024-02-28T12:30:44;27.60;32.00
32612;DHT22;19030;49.478;8.986;2024-02-28T12:32:45;27.70;30.60
32612;DHT22;19030;49.478;8.986;2024-02-28T12:34:45;27.90;30.70
32612;DHT22;19030;49.478;8.986;2024-02-28T12:36:46;27.40;31.20
32612;DHT22;19030;49.478;8.986;2024-02-28T12:38:46;26.70;31.40
32612;DHT22;19030;49.478;8.986;2024-02-28T12:40:47;26.10;32.30
32612;DHT22;19030;49.478;8.986;2024-02-28T12:42:47;25.40;33.20
32612;DHT22;19030;49.478;8.986;2024-02-28T12:44:48;25.60;33.50
32612;DHT22;19030;49.478;8.986;2024-02-28T12:46:49;25.40;33.40
32612;DHT22;19030;49.478;8.986;2024-02-28T12:48:49;26.30;33.50
32612;DHT22;19030;49.478;8.986;2024-02-28T12:50:50;27.10;32.50
32612;DHT22;19030;49.478;8.986;2024-02-28T12:52:51;27.10;31.70